Dades meteomassalio
Diari Summary for Gener 19, 2017 Units:  English    Metric   Both
« Previous Day
Next Day »
Diari Semanal Mensual Anual Personalitzat
  Maxima: Minima: Mijana:
Temperatura: TemperatureC °F -4.4 °F -0.3 °F
Rosada: DewpointC °F -6.8 °F -4.1 °F
Humitat: Humidity % 65 % 76 %
Velocitat del vent: WindSpeedKMH mph 0.0 mph 2.7 mph
Racha vent: WindSpeedGustKMH mph - -
Vent:- - West
Pressio: PressurehPa in 1024.3 in -
Pluja: 0.0 in    
Historical Graphs
 
 
Tabular Data for Gener 19, 2017
Time Temperature Dew Point Pressure Wind Wind Speed Wind Gust Humidity Rainfall Rate (Hourly) solar Conditions
TemperatureC °F DewpointC °F PressurehPa in Calm     Humidity % HourlyPrecipMM in SolarRadiationWatts/m^2 W/m2 Conditions
00:02 -2.2 °F -5.9 °F 1027.3 in Calm     76 % 0.0 in 0.0 W/m2 CLR
00:07 -2.6 °F -6.3 °F 1027.3 in Calm     76 % 0.0 in 0.0 W/m2 CLR
00:12 -2.9 °F -6.3 °F 1027.3 in Calm     77 % 0.0 in 0.0 W/m2 CLR
00:17 -3.1 °F -6.4 °F 1027.3 in Calm     78 % 0.0 in 0.0 W/m2 CLR
00:22 -3.3 °F -6.4 °F 1027.3 in Calm     79 % 0.0 in 0.0 W/m2 CLR
00:27 -3.3 °F -6.3 °F 1027.3 in SW 5.6 mph 5.6 mph 80 % 0.0 in 0.0 W/m2 CLR
00:32 -3.2 °F -6.0 °F 1027.3 in SW 7.4 mph 7.4 mph 81 % 0.0 in 0.0 W/m2 CLR
00:37 -2.9 °F -5.7 °F 1027.3 in SW 5.6 mph 5.6 mph 81 % 0.0 in 0.0 W/m2 CLR
00:42 -2.8 °F -5.8 °F 1027.3 in SSW 6.4 mph 6.4 mph 80 % 0.0 in 0.0 W/m2 CLR
00:47 -2.8 °F -5.8 °F 1027.3 in SW 7.4 mph 7.4 mph 80 % 0.0 in 0.0 W/m2 CLR
00:52 -2.8 °F -5.8 °F 1027.3 in SW 9.3 mph 9.3 mph 80 % 0.0 in 0.0 W/m2 CLR
00:57 -2.9 °F -5.8 °F 1027.3 in SW 9.3 mph 9.3 mph 80 % 0.0 in 0.0 W/m2 CLR
01:02 -2.8 °F -5.8 °F 1027.3 in WSW 6.4 mph 6.4 mph 80 % 0.0 in 0.0 W/m2 CLR
01:07 -2.7 °F -5.7 °F 1027.3 in SW 6.4 mph 6.4 mph 80 % 0.0 in 0.0 W/m2 CLR
01:12 -2.7 °F -5.7 °F 1027.3 in SW 6.4 mph 6.4 mph 80 % 0.0 in 0.0 W/m2 CLR
01:17 -2.6 °F -5.6 °F 1027.3 in WSW 8.0 mph 8.0 mph 80 % 0.0 in 0.0 W/m2 CLR
01:22 -2.6 °F -5.7 °F 1027.3 in Calm     79 % 0.0 in 0.0 W/m2 CLR
01:27 -2.9 °F -6.2 °F 1027.3 in Calm     78 % 0.0 in 0.0 W/m2 CLR
01:32 -3.1 °F -6.2 °F 1027.3 in Calm     79 % 0.0 in 0.0 W/m2 CLR
01:37 -3.4 °F -6.5 °F 1027.3 in Calm     79 % 0.0 in 0.0 W/m2 CLR
01:42 -3.6 °F -6.6 °F 1027.3 in Calm     80 % 0.0 in 0.0 W/m2 CLR
01:47 -3.7 °F -6.5 °F 1027.3 in Calm     81 % 0.0 in 0.0 W/m2 CLR
01:52 -3.8 °F -6.4 °F 1027.3 in Calm     82 % 0.0 in 0.0 W/m2 CLR
01:57 -3.9 °F -6.5 °F 1027.0 in Calm     82 % 0.0 in 0.0 W/m2 CLR
02:02 -3.9 °F -6.6 °F 1027.0 in Calm     82 % 0.0 in 0.0 W/m2 CLR
02:07 -4.0 °F -6.4 °F 1027.3 in Calm     83 % 0.0 in 0.0 W/m2 CLR
02:12 -4.1 °F -6.5 °F 1027.3 in Calm     83 % 0.0 in 0.0 W/m2 CLR
02:17 -4.2 °F -6.8 °F 1027.3 in Calm     82 % 0.0 in 0.0 W/m2 CLR
02:22 -4.3 °F -6.7 °F 1027.0 in Calm     83 % 0.0 in 0.0 W/m2 CLR
02:27 -4.2 °F -6.5 °F 1027.3 in Calm     84 % 0.0 in 0.0 W/m2 CLR
02:32 -4.2 °F -6.5 °F 1027.3 in South 3.7 mph 3.7 mph 84 % 0.0 in 0.0 W/m2 CLR
02:37 -4.1 °F -6.4 °F 1027.3 in Calm     84 % 0.0 in 0.0 W/m2 CLR
02:42 -4.3 °F -6.7 °F 1027.3 in Calm     83 % 0.0 in 0.0 W/m2 CLR
02:47 -4.4 °F -6.7 °F 1027.3 in Calm     84 % 0.0 in 0.0 W/m2 CLR
02:52 -4.4 °F -6.6 °F 1027.3 in Calm     85 % 0.0 in 0.0 W/m2 CLR
02:57 -4.2 °F -6.2 °F 1027.3 in Calm     86 % 0.0 in 0.0 W/m2 CLR
03:02 -3.9 °F -5.9 °F 1027.3 in Calm     86 % 0.0 in 0.0 W/m2 CLR
03:07 -3.7 °F -5.7 °F 1027.7 in SW 4.8 mph   86 % 0.0 in 0.0 W/m2 CLR
03:12 -3.4 °F -5.4 °F 1027.7 in SW 5.6 mph 5.6 mph 86 % 0.0 in 0.0 W/m2 CLR
03:17 -3.1 °F -5.2 °F 1027.3 in WSW 8.0 mph 8.0 mph 85 % 0.0 in 0.0 W/m2 CLR
03:22 -2.5 °F -4.8 °F 1027.3 in WSW 5.6 mph 5.6 mph 84 % 0.0 in 0.0 W/m2 CLR
03:27 -2.2 °F -4.8 °F 1027.3 in WSW 9.3 mph 9.3 mph 82 % 0.0 in 0.0 W/m2 CLR
03:32 -1.9 °F -4.8 °F 1027.3 in WSW 5.6 mph 5.6 mph 81 % 0.0 in 0.0 W/m2 CLR
03:37 -1.9 °F -4.9 °F 1027.3 in Calm     80 % 0.0 in 0.0 W/m2 CLR
03:42 -1.9 °F -4.9 °F 1027.0 in WSW 3.2 mph 3.2 mph 80 % 0.0 in 0.0 W/m2 CLR
03:47 -2.2 °F -5.2 °F 1027.3 in Calm     80 % 0.0 in 0.0 W/m2 CLR
03:52 -2.2 °F -5.2 °F 1027.3 in Calm     80 % 0.0 in 0.0 W/m2 CLR
03:57 -2.2 °F -5.0 °F 1027.3 in Calm     81 % 0.0 in 0.0 W/m2 CLR
04:02 -2.0 °F -4.8 °F 1027.3 in Calm     81 % 0.0 in 0.0 W/m2 CLR
04:07 -1.9 °F -4.9 °F 1027.3 in Calm   0.5 mph 80 % 0.0 in 0.0 W/m2 CLR
04:12 -2.0 °F -5.0 °F 1027.3 in Calm     80 % 0.0 in 0.0 W/m2 CLR
04:17 -2.1 °F -5.1 °F 1027.0 in Calm     80 % 0.0 in 0.0 W/m2 CLR
04:22 -2.1 °F -4.9 °F 1027.0 in SSE 5.6 mph 5.6 mph 81 % 0.0 in 0.0 W/m2 CLR
04:27 -1.9 °F -4.7 °F 1027.0 in West 5.6 mph 5.6 mph 81 % 0.0 in 0.0 W/m2 CLR
04:32 -1.7 °F -4.7 °F 1027.3 in WSW 5.6 mph 5.6 mph 80 % 0.0 in 0.0 W/m2 CLR
04:37 -1.7 °F -4.8 °F 1027.3 in SW 5.6 mph 5.6 mph 79 % 0.0 in 0.0 W/m2 CLR
04:43 -1.7 °F -4.9 °F 1027.0 in SW 3.7 mph 3.7 mph 79 % 0.0 in 0.0 W/m2 CLR
04:48 -1.8 °F -5.0 °F 1027.0 in SW 5.6 mph 5.6 mph 79 % 0.0 in 0.0 W/m2 CLR
04:53 -1.9 °F -4.9 °F 1027.3 in WSW 5.6 mph 5.6 mph 80 % 0.0 in 0.0 W/m2 CLR
04:58 -1.9 °F -4.9 °F 1027.3 in SW 5.6 mph 5.6 mph 80 % 0.0 in 0.0 W/m2 CLR
05:03 -1.9 °F -4.9 °F 1027.3 in SW 5.6 mph 5.6 mph 80 % 0.0 in 0.0 W/m2 CLR
05:08 -2.0 °F -5.0 °F 1027.0 in SW 3.7 mph 3.7 mph 80 % 0.0 in 0.0 W/m2 CLR
05:13 -2.1 °F -5.1 °F 1027.3 in Calm     80 % 0.0 in 0.0 W/m2 CLR
05:18 -2.1 °F -5.1 °F 1027.3 in Calm     80 % 0.0 in 0.0 W/m2 CLR
05:23 -2.1 °F -4.9 °F 1027.0 in SW 3.7 mph 3.7 mph 81 % 0.0 in 0.0 W/m2 CLR
05:28 -2.1 °F -5.1 °F 1027.0 in Calm     80 % 0.0 in 0.0 W/m2 CLR
05:33 -2.2 °F -5.2 °F 1027.0 in Calm     80 % 0.0 in 0.0 W/m2 CLR
05:38 -2.2 °F -5.1 °F 1027.0 in WSW 5.6 mph 5.6 mph 81 % 0.0 in 0.0 W/m2 CLR
05:43 -2.1 °F -4.9 °F 1027.0 in West 7.4 mph 7.4 mph 81 % 0.0 in 0.0 W/m2 CLR
05:48 -2.1 °F -5.1 °F 1027.0 in West 5.6 mph 5.6 mph 80 % 0.0 in 0.0 W/m2 CLR
05:53 -2.1 °F -5.1 °F 1027.3 in West 3.7 mph 3.7 mph 80 % 0.0 in 0.0 W/m2 CLR
05:58 -2.1 °F -5.1 °F 1027.3 in Calm     80 % 0.0 in 0.0 W/m2 CLR
06:03 -2.3 °F -5.3 °F 1027.3 in West 3.7 mph 3.7 mph 80 % 0.0 in 0.0 W/m2 CLR
06:08 -2.3 °F -5.2 °F 1027.0 in West 7.4 mph 7.4 mph 81 % 0.0 in 0.0 W/m2 CLR
06:13 -2.1 °F -4.9 °F 1027.0 in West 5.6 mph 5.6 mph 81 % 0.0 in 0.0 W/m2 CLR
06:18 -2.1 °F -4.9 °F 1027.3 in Calm     81 % 0.0 in 0.0 W/m2 CLR
06:23 -2.2 °F -5.2 °F 1027.3 in Calm     80 % 0.0 in 0.0 W/m2 CLR
06:28 -2.4 °F -5.2 °F 1027.3 in WSW 3.7 mph 3.7 mph 81 % 0.0 in 0.0 W/m2 CLR
06:33 -2.5 °F -5.2 °F 1027.3 in Calm     82 % 0.0 in 0.0 W/m2 CLR
06:38 -2.6 °F -5.3 °F 1027.3 in Calm     82 % 0.0 in 0.0 W/m2 CLR
06:43 -2.7 °F -5.3 °F 1027.3 in Calm     82 % 0.0 in 0.0 W/m2 CLR
06:48 -2.7 °F -5.2 °F 1027.3 in Calm     83 % 0.0 in 0.0 W/m2 CLR
06:53 -2.8 °F -5.3 °F 1027.3 in Calm     83 % 0.0 in 0.0 W/m2 CLR
06:58 -2.8 °F -5.3 °F 1027.3 in SSW 6.4 mph 6.4 mph 83 % 0.0 in 0.0 W/m2 CLR
07:03 -2.9 °F -5.4 °F 1027.3 in SW 5.6 mph 5.6 mph 83 % 0.0 in 0.0 W/m2 CLR
07:08 -3.0 °F -5.3 °F 1027.3 in WSW 5.6 mph 5.6 mph 84 % 0.0 in 0.0 W/m2 CLR
07:13 -3.1 °F -5.4 °F 1027.3 in WSW 7.4 mph 7.4 mph 84 % 0.0 in 0.0 W/m2 CLR
07:18 -2.8 °F -5.1 °F 1027.3 in West 5.6 mph 5.6 mph 84 % 0.0 in 0.0 W/m2 CLR
07:23 -2.7 °F -5.2 °F 1027.3 in Calm     83 % 0.0 in 0.0 W/m2 CLR
07:28 -2.9 °F -5.4 °F 1027.3 in WSW 5.6 mph 5.6 mph 83 % 0.0 in 0.0 W/m2 CLR
07:33 -3.0 °F -5.5 °F 1027.3 in SW 5.6 mph 5.6 mph 83 % 0.0 in 0.0 W/m2 CLR
07:38 -3.1 °F -5.6 °F 1027.3 in SSW 5.6 mph 5.6 mph 83 % 0.0 in 0.0 W/m2 CLR
07:43 -3.2 °F -5.7 °F 1027.7 in Calm     83 % 0.0 in 0.0 W/m2 CLR
07:48 -3.4 °F -5.7 °F 1027.7 in Calm     84 % 0.0 in 0.0 W/m2 CLR
07:53 -3.5 °F -5.8 °F 1027.7 in Calm     84 % 0.0 in 0.0 W/m2 CLR
07:58 -3.6 °F -5.7 °F 1027.7 in Calm     85 % 0.0 in 0.0 W/m2 CLR
08:03 -3.6 °F -5.8 °F 1027.7 in Calm     85 % 0.0 in 0.0 W/m2 CLR
08:08 -3.7 °F -5.9 °F 1027.7 in Calm     85 % 0.0 in 0.0 W/m2 CLR
08:13 -3.8 °F -6.0 °F 1027.7 in Calm     85 % 0.0 in 0.0 W/m2 CLR
08:18 -3.9 °F -6.1 °F 1027.7 in Calm     85 % 0.0 in 0.0 W/m2 CLR
08:23 -4.1 °F -6.3 °F 1027.7 in Calm     85 % 0.0 in 0.0 W/m2 OVC
08:28 -4.1 °F -6.1 °F 1027.7 in Calm     86 % 0.0 in 7.0 W/m2 OVC
08:33 -4.2 °F -6.2 °F 1027.7 in Calm     86 % 0.0 in 11.0 W/m2 OVC
08:38 -4.3 °F -6.3 °F 1027.7 in Calm     86 % 0.0 in 14.0 W/m2 BKN
08:43 -4.2 °F -6.1 °F 1027.7 in Calm     87 % 0.0 in 19.0 W/m2 BKN
08:48 -4.2 °F -6.1 °F 1027.7 in SW 1.6 mph 1.6 mph 87 % 0.0 in 25.0 W/m2 BKN
08:53 -4.3 °F -6.2 °F 1028.0 in SW 3.7 mph 3.7 mph 87 % 0.0 in 28.0 W/m2 BKN
08:58 -4.3 °F -6.2 °F 1027.7 in SW 3.7 mph 3.7 mph 87 % 0.0 in 33.0 W/m2 BKN
09:03 -4.3 °F -6.1 °F 1027.7 in Calm     87 % 0.0 in 40.0 W/m2 BKN
09:08 -4.2 °F -5.9 °F 1027.7 in Calm     88 % 0.0 in 47.0 W/m2 BKN
09:13 -4.2 °F -6.0 °F 1028.0 in Calm     87 % 0.0 in 51.0 W/m2 BKN
09:18 -4.1 °F -5.9 °F 1028.0 in Calm     87 % 0.0 in 54.0 W/m2 BKN
09:23 -3.9 °F -5.8 °F 1028.0 in Calm     87 % 0.0 in 62.0 W/m2 BKN
09:28 -3.9 °F -5.7 °F 1028.0 in Calm     87 % 0.0 in 79.0 W/m2 BKN
09:33 -3.8 °F -5.6 °F 1027.7 in Calm     87 % 0.0 in 114.0 W/m2 BKN
09:38 -3.6 °F -5.4 °F 1027.7 in Calm     87 % 0.0 in 137.0 W/m2 BKN
09:43 -3.2 °F -5.0 °F 1027.7 in Calm     87 % 0.0 in 163.0 W/m2 BKN
09:48 -2.9 °F -4.9 °F 1027.7 in Calm     86 % 0.0 in 183.0 W/m2 BKN
09:53 -2.6 °F -4.6 °F 1028.0 in Calm     86 % 0.0 in 178.0 W/m2 BKN
09:58 -2.2 °F -4.3 °F 1028.0 in Calm     85 % 0.0 in 181.0 W/m2 SCT
10:03 -1.8 °F -4.1 °F 1028.0 in Calm     84 % 0.0 in 225.0 W/m2 BKN
10:08 -1.3 °F -3.6 °F 1027.7 in Calm     84 % 0.0 in 285.0 W/m2 SCT
10:13 -0.7 °F -3.3 °F 1027.7 in Calm     82 % 0.0 in 302.0 W/m2 SCT
10:18 -0.2 °F -3.1 °F 1027.7 in Calm     81 % 0.0 in 281.0 W/m2 SCT
10:23 0.3 °F -2.9 °F 1027.7 in West 6.4 mph 6.4 mph 79 % 0.0 in 271.0 W/m2 SCT
10:29 0.6 °F -3.0 °F 1027.3 in WNW 9.7 mph 9.7 mph 77 % 0.0 in 271.0 W/m2 SCT
10:34 0.8 °F -3.0 °F 1027.3 in NW 9.7 mph 9.7 mph 76 % 0.0 in 288.0 W/m2 SCT
10:39 0.9 °F -3.0 °F 1027.3 in NW 11.3 mph 11.3 mph 75 % 0.0 in 294.0 W/m2 SCT
10:44 1.0 °F -3.1 °F 1027.3 in NW 11.3 mph 11.3 mph 74 % 0.0 in 290.0 W/m2 SCT
10:49 1.0 °F -3.3 °F 1027.3 in NW 14.8 mph 14.8 mph 73 % 0.0 in 288.0 W/m2 SCT
10:54 0.9 °F -3.3 °F 1027.3 in NW 16.7 mph 16.7 mph 73 % 0.0 in 295.0 W/m2 SCT
10:59 1.0 °F -3.3 °F 1027.3 in NW 13.0 mph 13.0 mph 73 % 0.0 in 325.0 W/m2 SCT
11:04 1.1 °F -3.2 °F 1027.3 in NW 11.1 mph 11.1 mph 73 % 0.0 in 322.0 W/m2 SCT
11:09 1.2 °F -3.1 °F 1027.3 in NW 11.1 mph 11.1 mph 73 % 0.0 in 341.0 W/m2 SCT
11:14 1.3 °F -3.2 °F 1027.3 in NW 13.0 mph 13.0 mph 72 % 0.0 in 353.0 W/m2 SCT
11:19 1.3 °F -3.2 °F 1027.3 in NW 9.3 mph 9.3 mph 72 % 0.0 in 336.0 W/m2 SCT
11:24 1.4 °F -3.3 °F 1027.3 in NW 13.0 mph 13.0 mph 71 % 0.0 in 364.0 W/m2 SCT
11:29 1.3 °F -3.2 °F 1027.3 in NW 5.6 mph   72 % 0.0 in 369.0 W/m2 SCT
11:34 1.5 °F -3.0 °F 1027.3 in NW 11.1 mph 11.6 mph 72 % 0.0 in 355.0 W/m2 SCT
11:39 1.5 °F -3.2 °F 1027.3 in NW 13.0 mph 13.0 mph 71 % 0.0 in 364.0 W/m2 SCT
11:44 1.6 °F -3.3 °F 1027.3 in WNW 9.3 mph 9.3 mph 70 % 0.0 in 371.0 W/m2 SCT
11:49 1.8 °F -3.1 °F 1027.0 in WNW 9.3 mph 9.3 mph 70 % 0.0 in 374.0 W/m2 SCT
11:54 1.9 °F -2.9 °F 1026.6 in NNW 11.3 mph 11.3 mph 70 % 0.0 in 394.0 W/m2 SCT
11:59 2.0 °F -3.1 °F 1026.6 in NW 16.7 mph 16.7 mph 69 % 0.0 in 429.0 W/m2 FEW
12:04 2.1 °F -3.2 °F 1026.6 in NW 14.8 mph 14.8 mph 68 % 0.0 in 431.0 W/m2 FEW
12:09 2.1 °F -3.2 °F 1026.6 in NW 14.8 mph 14.8 mph 68 % 0.0 in 179.0 W/m2 SCT
12:14 2.1 °F -3.2 °F 1026.3 in NW 9.7 mph 9.7 mph 68 % 0.0 in 517.0 W/m2 SCT
12:20 2.3 °F -3.0 °F 1026.3 in WNW 16.7 mph 16.7 mph 68 % 0.0 in 471.0 W/m2 SCT
12:25 2.4 °F -3.1 °F 1026.3 in NW 13.0 mph 13.0 mph 67 % 0.0 in 392.0 W/m2 CLR
12:30 2.3 °F -3.2 °F 1026.0 in NW 9.7 mph 9.7 mph 67 % 0.0 in 165.0 W/m2 FEW
12:35 2.1 °F -3.4 °F 1026.0 in NW 3.2 mph 3.2 mph 67 % 0.0 in 146.0 W/m2 BKN
12:40 2.1 °F -3.2 °F 1026.0 in NW 7.4 mph 7.4 mph 68 % 0.0 in 156.0 W/m2 BKN
12:45 2.2 °F -3.1 °F 1026.0 in NW 9.3 mph 9.3 mph 68 % 0.0 in 216.0 W/m2 BKN
12:50 2.2 °F -3.3 °F 1026.0 in NW 5.6 mph 5.6 mph 67 % 0.0 in 163.0 W/m2 BKN
12:55 2.1 °F -3.2 °F 1026.0 in NNW 9.3 mph 9.3 mph 68 % 0.0 in 123.0 W/m2 BKN
13:00 1.9 °F -3.2 °F 1026.0 in Calm     69 % 0.0 in 104.0 W/m2 BKN
13:05 1.9 °F -3.2 °F 1026.0 in North 9.3 mph 9.3 mph 69 % 0.0 in 77.0 W/m2 BKN
13:10 1.9 °F -3.0 °F 1026.0 in North 5.6 mph 5.6 mph 70 % 0.0 in 63.0 W/m2 BKN
13:15 1.8 °F -3.1 °F 1026.0 in North 5.6 mph 5.6 mph 70 % 0.0 in 74.0 W/m2 BKN
13:20 1.8 °F -3.1 °F 1026.0 in North 5.6 mph 5.6 mph 70 % 0.0 in 95.0 W/m2 BKN
13:25 1.8 °F -3.1 °F 1025.6 in North 5.6 mph 5.6 mph 70 % 0.0 in 72.0 W/m2 BKN
13:30 1.8 °F -3.1 °F 1025.6 in NW 4.8 mph 4.8 mph 70 % 0.0 in 53.0 W/m2 BKN
13:35 1.8 °F -3.1 °F 1025.6 in NNW 7.4 mph 7.4 mph 70 % 0.0 in 65.0 W/m2 BKN
13:40 1.7 °F -3.2 °F 1025.6 in Calm     70 % 0.0 in 111.0 W/m2 BKN
13:45 1.7 °F -3.0 °F 1025.6 in NNW 7.4 mph 7.4 mph 71 % 0.0 in 69.0 W/m2 BKN
13:50 1.7 °F -3.1 °F 1025.3 in Calm     71 % 0.0 in 46.0 W/m2 BKN
13:55 1.7 °F -3.1 °F 1025.3 in NW 5.6 mph 5.6 mph 71 % 0.0 in 35.0 W/m2 BKN
14:00 1.6 °F -3.1 °F 1025.3 in Calm     71 % 0.0 in 33.0 W/m2 BKN
14:05 1.6 °F -2.9 °F 1025.3 in Calm     72 % 0.0 in 56.0 W/m2 BKN
14:10 1.6 °F -3.1 °F 1025.3 in Calm     71 % 0.0 in 65.0 W/m2 BKN
14:15 1.5 °F -3.0 °F 1025.3 in NNW 7.4 mph 7.4 mph 72 % 0.0 in 46.0 W/m2 BKN
14:20 1.6 °F -2.9 °F 1025.3 in NW 5.6 mph 5.6 mph 72 % 0.0 in 46.0 W/m2 BKN
14:25 1.5 °F -3.0 °F 1024.9 in NW 5.6 mph 5.6 mph 72 % 0.0 in 44.0 W/m2 BKN
14:30 1.4 °F -3.1 °F 1024.9 in NW 7.4 mph 7.4 mph 72 % 0.0 in 54.0 W/m2 BKN
14:35 1.5 °F -2.8 °F 1024.9 in NNW 8.0 mph 8.0 mph 73 % 0.0 in 81.0 W/m2 BKN
14:40 1.6 °F -2.9 °F 1024.9 in NNW 5.6 mph 5.6 mph 72 % 0.0 in 74.0 W/m2 BKN
14:45 1.6 °F -2.9 °F 1024.9 in Calm     72 % 0.0 in 60.0 W/m2 BKN
14:50 1.6 °F -2.9 °F 1024.6 in NW 5.6 mph 5.6 mph 72 % 0.0 in 77.0 W/m2 BKN
14:55 1.7 °F -2.8 °F 1024.6 in NW 5.6 mph 5.6 mph 72 % 0.0 in 65.0 W/m2 BKN
15:00 1.7 °F -2.8 °F 1024.6 in NW 3.7 mph   72 % 0.0 in 77.0 W/m2 BKN
15:05 1.7 °F -2.8 °F 1024.6 in Calm     72 % 0.0 in 90.0 W/m2 BKN
15:10 1.7 °F -2.8 °F 1024.6 in Calm     72 % 0.0 in 113.0 W/m2 BKN
15:15 1.8 °F -2.7 °F 1024.6 in Calm     72 % 0.0 in 146.0 W/m2 BKN
15:20 1.8 °F -2.9 °F 1024.6 in Calm     71 % 0.0 in 142.0 W/m2 SCT
15:25 1.9 °F -2.8 °F 1024.6 in NW 3.7 mph 3.7 mph 71 % 0.0 in 105.0 W/m2 SCT
15:30 1.9 °F -3.0 °F 1024.6 in WNW 5.6 mph 5.6 mph 70 % 0.0 in 84.0 W/m2 BKN
15:35 1.9 °F -3.0 °F 1024.6 in WNW 5.6 mph 5.6 mph 70 % 0.0 in 65.0 W/m2 BKN
15:40 1.9 °F -2.9 °F 1024.3 in Calm     70 % 0.0 in 70.0 W/m2 BKN
15:45 1.9 °F -3.2 °F 1024.3 in WNW 1.9 mph   69 % 0.0 in 91.0 W/m2 BKN
15:50 2.0 °F -3.3 °F 1024.6 in WNW 4.8 mph 4.8 mph 68 % 0.0 in 63.0 W/m2 BKN
15:55 2.1 °F -3.4 °F 1024.6 in WNW 8.0 mph 8.0 mph 67 % 0.0 in 88.0 W/m2 BKN
16:00 2.1 °F -3.4 °F 1024.6 in NW 7.4 mph 7.4 mph 67 % 0.0 in 76.0 W/m2 BKN
16:05 2.1 °F -3.4 °F 1024.6 in NW 5.6 mph 5.6 mph 67 % 0.0 in 76.0 W/m2 SCT
16:10 2.1 °F -3.4 °F 1024.6 in Calm     67 % 0.0 in 74.0 W/m2 SCT
16:15 2.1 °F -3.6 °F 1024.6 in Calm     66 % 0.0 in 60.0 W/m2 SCT
16:20 2.1 °F -3.6 °F 1024.3 in Calm     66 % 0.0 in 65.0 W/m2 SCT
16:25 2.1 °F -3.4 °F 1024.3 in NW 6.4 mph 6.4 mph 67 % 0.0 in 62.0 W/m2 FEW
16:30 2.1 °F -3.6 °F 1024.3 in NW 5.6 mph 5.6 mph 66 % 0.0 in 51.0 W/m2 CLR
16:35 2.1 °F -3.6 °F 1024.3 in Calm     66 % 0.0 in 39.0 W/m2 CLR
16:41 2.1 °F -3.6 °F 1024.3 in Calm     66 % 0.0 in 40.0 W/m2 CLR
16:46 2.1 °F -3.8 °F 1024.3 in Calm     65 % 0.0 in 47.0 W/m2 CLR
16:51 2.1 °F -3.8 °F 1024.3 in Calm     65 % 0.0 in 39.0 W/m2 SCT
16:56 2.1 °F -3.6 °F 1024.3 in Calm     66 % 0.0 in 33.0 W/m2 OVC
17:01 2.1 °F -3.8 °F 1024.3 in Calm     65 % 0.0 in 26.0 W/m2 OVC
17:06 2.1 °F -3.6 °F 1024.3 in Calm     66 % 0.0 in 18.0 W/m2 OVC
17:11 2.1 °F -3.6 °F 1024.3 in Calm     66 % 0.0 in 26.0 W/m2 OVC
17:16 2.1 °F -3.8 °F 1024.3 in Calm     65 % 0.0 in 23.0 W/m2 OVC
17:21 2.1 °F -3.7 °F 1024.3 in Calm     66 % 0.0 in 19.0 W/m2 OVC
17:26 2.1 °F -3.7 °F 1024.3 in Calm     66 % 0.0 in 21.0 W/m2 OVC
17:31 2.1 °F -3.7 °F 1024.3 in Calm     66 % 0.0 in 21.0 W/m2 OVC
17:36 2.1 °F -3.4 °F 1024.3 in Calm     67 % 0.0 in 12.0 W/m2 OVC
17:41 2.1 °F -3.4 °F 1024.3 in Calm     67 % 0.0 in 9.0 W/m2 OVC
17:46 2.0 °F -3.7 °F 1024.3 in Calm     66 % 0.0 in 5.0 W/m2 OVC
17:51 2.0 °F -3.5 °F 1024.6 in Calm     67 % 0.0 in 0.0 W/m2 OVC
17:56 2.0 °F -3.5 °F 1024.3 in Calm     67 % 0.0 in 0.0 W/m2 OVC
18:01 1.9 °F -3.6 °F 1024.3 in Calm     67 % 0.0 in 0.0 W/m2 OVC
18:06 1.9 °F -3.6 °F 1024.6 in Calm     67 % 0.0 in 0.0 W/m2 CLR
18:11 1.9 °F -3.6 °F 1024.3 in Calm     67 % 0.0 in 0.0 W/m2 CLR
18:16 1.9 °F -3.6 °F 1024.6 in Calm     67 % 0.0 in 0.0 W/m2 CLR
18:21 1.8 °F -3.4 °F 1024.6 in Calm     68 % 0.0 in 0.0 W/m2 CLR
18:26 1.8 °F -3.5 °F 1024.6 in Calm     68 % 0.0 in 0.0 W/m2 CLR
18:31 1.7 °F -3.6 °F 1024.6 in Calm     68 % 0.0 in 0.0 W/m2 CLR
18:36 1.7 °F -3.6 °F 1024.6 in Calm     68 % 0.0 in 0.0 W/m2 CLR
18:41 1.7 °F -3.6 °F 1024.6 in Calm     68 % 0.0 in 0.0 W/m2 CLR
18:46 1.7 °F -3.4 °F 1024.6 in Calm     69 % 0.0 in 0.0 W/m2 CLR
18:51 1.7 °F -3.6 °F 1024.6 in Calm     68 % 0.0 in 0.0 W/m2 CLR
18:56 1.7 °F -3.6 °F 1024.6 in Calm     68 % 0.0 in 0.0 W/m2 CLR
19:01 1.7 °F -3.6 °F 1024.6 in Calm     68 % 0.0 in 0.0 W/m2 CLR
19:06 1.7 °F -3.6 °F 1024.6 in Calm     68 % 0.0 in 0.0 W/m2 CLR
19:11 1.7 °F -3.6 °F 1024.6 in Calm     68 % 0.0 in 0.0 W/m2 CLR
19:16 1.6 °F -3.4 °F 1024.6 in Calm     69 % 0.0 in 0.0 W/m2 CLR
19:21 1.6 °F -3.4 °F 1024.6 in Calm     69 % 0.0 in 0.0 W/m2 CLR
19:26 1.6 °F -3.5 °F 1024.6 in Calm     69 % 0.0 in 0.0 W/m2 CLR
19:31 1.5 °F -3.6 °F 1024.6 in Calm     69 % 0.0 in 0.0 W/m2 CLR
19:36 1.5 °F -3.4 °F 1024.6 in Calm     70 % 0.0 in 0.0 W/m2 CLR
19:41 1.4 °F -3.3 °F 1024.6 in Calm     71 % 0.0 in 0.0 W/m2 CLR
19:46 1.3 °F -3.2 °F 1024.6 in Calm     72 % 0.0 in 0.0 W/m2 CLR
19:51 1.3 °F -3.2 °F 1024.6 in Calm     72 % 0.0 in 0.0 W/m2 CLR
19:56 1.3 °F -3.2 °F 1024.6 in Calm     72 % 0.0 in 0.0 W/m2 CLR
20:01 1.3 °F -3.2 °F 1024.6 in Calm     72 % 0.0 in 0.0 W/m2 CLR
20:06 1.3 °F -3.3 °F 1024.6 in Calm     71 % 0.0 in 0.0 W/m2 CLR
20:11 1.3 °F -3.3 °F 1024.6 in Calm     71 % 0.0 in 0.0 W/m2 CLR
20:16 1.3 °F -3.2 °F 1024.6 in Calm     72 % 0.0 in 0.0 W/m2 CLR
20:21 1.3 °F -3.2 °F 1024.6 in Calm     72 % 0.0 in 0.0 W/m2 CLR
20:26 1.3 °F -3.2 °F 1024.6 in Calm     72 % 0.0 in 0.0 W/m2 CLR
20:31 1.2 °F -3.3 °F 1024.6 in Calm     72 % 0.0 in 0.0 W/m2 CLR
20:36 1.3 °F -3.2 °F 1024.6 in Calm     72 % 0.0 in 0.0 W/m2 CLR
20:41 1.3 °F -3.2 °F 1024.6 in Calm     72 % 0.0 in 0.0 W/m2 CLR
20:46 1.3 °F -3.1 °F 1024.6 in Calm     73 % 0.0 in 0.0 W/m2 CLR
20:52 1.3 °F -3.1 °F 1024.6 in Calm     73 % 0.0 in 0.0 W/m2 CLR
20:57 1.3 °F -3.1 °F 1024.6 in Calm     73 % 0.0 in 0.0 W/m2 CLR
21:02 1.3 °F -3.1 °F 1024.6 in Calm     73 % 0.0 in 0.0 W/m2 CLR
21:07 1.3 °F -3.1 °F 1024.9 in Calm     73 % 0.0 in 0.0 W/m2 CLR
21:12 1.3 °F -2.8 °F 1024.9 in Calm     74 % 0.0 in 0.0 W/m2 CLR
21:17 1.3 °F -2.8 °F 1024.6 in Calm     74 % 0.0 in 0.0 W/m2 CLR
21:22 1.3 °F -2.8 °F 1024.6 in Calm     74 % 0.0 in 0.0 W/m2 CLR
21:27 1.3 °F -2.8 °F 1024.6 in Calm     74 % 0.0 in 0.0 W/m2 CLR
21:32 1.3 °F -2.8 °F 1024.6 in Calm     74 % 0.0 in 0.0 W/m2 CLR
21:37 1.3 °F -2.8 °F 1024.6 in Calm     74 % 0.0 in 0.0 W/m2 CLR
21:42 1.4 °F -2.7 °F 1024.6 in Calm     74 % 0.0 in 0.0 W/m2 CLR
21:47 1.4 °F -2.7 °F 1024.6 in Calm     74 % 0.0 in 0.0 W/m2 CLR
21:52 1.4 °F -2.7 °F 1024.6 in Calm     74 % 0.0 in 0.0 W/m2 CLR
21:57 1.5 °F -2.6 °F 1024.6 in Calm     74 % 0.0 in 0.0 W/m2 CLR
22:02 1.5 °F -2.6 °F 1024.6 in Calm     74 % 0.0 in 0.0 W/m2 CLR
22:07 1.6 °F -2.6 °F 1024.6 in Calm     74 % 0.0 in 0.0 W/m2 CLR
22:12 1.6 °F -2.6 °F 1024.6 in Calm     74 % 0.0 in 0.0 W/m2 CLR
22:17 1.6 °F -2.6 °F 1024.6 in Calm     74 % 0.0 in 0.0 W/m2 CLR
22:22 1.5 °F -2.6 °F 1024.6 in Calm     74 % 0.0 in 0.0 W/m2 CLR
22:27 1.5 °F -2.6 °F 1024.6 in Calm     74 % 0.0 in 0.0 W/m2 CLR
22:32 1.5 °F -2.6 °F 1024.6 in Calm     74 % 0.0 in 0.0 W/m2 CLR
22:37 1.5 °F -2.6 °F 1024.3 in Calm     74 % 0.0 in 0.0 W/m2 CLR
22:42 1.6 °F -2.6 °F 1024.3 in Calm     74 % 0.0 in 0.0 W/m2 CLR
22:47 1.6 °F -2.6 °F 1024.3 in Calm     74 % 0.0 in 0.0 W/m2 CLR
22:52 1.6 °F -2.4 °F 1024.3 in Calm     75 % 0.0 in 0.0 W/m2 CLR
22:57 1.6 °F -2.4 °F 1024.3 in Calm     75 % 0.0 in 0.0 W/m2 CLR
23:02 1.6 °F -2.4 °F 1024.3 in Calm     75 % 0.0 in 0.0 W/m2 CLR
23:07 1.6 °F -2.3 °F 1024.6 in Calm     75 % 0.0 in 0.0 W/m2 CLR
23:12 1.6 °F -2.3 °F 1024.6 in Calm     75 % 0.0 in 0.0 W/m2 CLR
23:17 1.6 °F -2.3 °F 1024.6 in Calm     75 % 0.0 in 0.0 W/m2 CLR
23:22 1.6 °F -2.3 °F 1024.3 in Calm     75 % 0.0 in 0.0 W/m2 CLR
23:27 1.7 °F -2.3 °F 1024.3 in Calm     75 % 0.0 in 0.0 W/m2 CLR
23:32 1.7 °F -2.3 °F 1024.3 in Calm     75 % 0.0 in 0.0 W/m2 CLR
23:37 1.7 °F -2.3 °F 1024.3 in Calm     75 % 0.0 in 0.0 W/m2 CLR
23:42 1.7 °F -2.3 °F 1024.3 in Calm     75 % 0.0 in 0.0 W/m2 CLR
23:47 1.7 °F -2.1 °F 1024.3 in Calm     76 % 0.0 in 0.0 W/m2 CLR
23:52 1.7 °F -2.1 °F 1024.3 in Calm     76 % 0.0 in 0.0 W/m2 CLR
23:57 1.6 °F -2.0 °F 1024.3 in Calm     77 % 0.0 in 0.0 W/m2 CLR
Lo Temps de Massalio
Compliments of Weather Underground - 1.25 mb